sensor_id;sensor_type;location;lat;lon;timestamp;P1;durP1;ratioP1;P2;durP2;ratioP2
71902;SDS011;59778;50.310;18.780;2022-10-26T00:00:00;57.90;;;28.33;;
71902;SDS011;59778;50.310;18.780;2022-10-26T00:15:41;62.37;;;31.07;;
71902;SDS011;59778;50.310;18.780;2022-10-26T00:31:03;54.17;;;27.07;;
71902;SDS011;59778;50.310;18.780;2022-10-26T00:46:28;61.73;;;30.60;;
71902;SDS011;59778;50.310;18.780;2022-10-26T01:01:54;60.63;;;30.60;;
71902;SDS011;59778;50.310;18.780;2022-10-26T01:48:16;62.47;;;29.93;;
71902;SDS011;59778;50.310;18.780;2022-10-26T02:03:43;59.07;;;29.53;;
71902;SDS011;59778;50.310;18.780;2022-10-26T02:19:20;55.90;;;28.27;;
71902;SDS011;59778;50.310;18.780;2022-10-26T02:34:49;57.10;;;27.47;;
71902;SDS011;59778;50.310;18.780;2022-10-26T02:50:11;62.50;;;33.47;;
71902;SDS011;59778;50.310;18.780;2022-10-26T03:05:33;57.90;;;30.97;;
71902;SDS011;59778;50.310;18.780;2022-10-26T03:20:56;50.33;;;28.67;;
71902;SDS011;59778;50.310;18.780;2022-10-26T03:36:17;52.73;;;25.93;;
71902;SDS011;59778;50.310;18.780;2022-10-26T03:51:38;42.43;;;23.33;;
71902;SDS011;59778;50.310;18.780;2022-10-26T04:06:59;45.20;;;22.63;;
71902;SDS011;59778;50.310;18.780;2022-10-26T04:22:21;46.73;;;22.53;;
71902;SDS011;59778;50.310;18.780;2022-10-26T04:37:42;48.83;;;22.70;;
71902;SDS011;59778;50.310;18.780;2022-10-26T04:53:03;43.47;;;21.50;;
71902;SDS011;59778;50.310;18.780;2022-10-26T05:08:26;50.30;;;25.10;;
71902;SDS011;59778;50.310;18.780;2022-10-26T05:23:49;46.63;;;25.20;;
71902;SDS011;59778;50.310;18.780;2022-10-26T05:39:15;64.67;;;34.40;;
71902;SDS011;59778;50.310;18.780;2022-10-26T05:54:36;56.80;;;29.00;;
71902;SDS011;59778;50.310;18.780;2022-10-26T06:09:57;58.53;;;31.57;;
71902;SDS011;59778;50.310;18.780;2022-10-26T06:41:04;69.50;;;38.90;;
71902;SDS011;59778;50.310;18.780;2022-10-26T06:56:25;61.60;;;33.77;;
71902;SDS011;59778;50.310;18.780;2022-10-26T07:11:47;74.70;;;42.93;;
71902;SDS011;59778;50.310;18.780;2022-10-26T07:27:08;54.27;;;33.07;;
71902;SDS011;59778;50.310;18.780;2022-10-26T07:42:30;42.20;;;23.63;;
71902;SDS011;59778;50.310;18.780;2022-10-26T07:57:51;29.00;;;17.17;;
71902;SDS011;59778;50.310;18.780;2022-10-26T08:13:12;24.57;;;14.60;;
71902;SDS011;59778;50.310;18.780;2022-10-26T08:28:33;18.20;;;11.30;;
71902;SDS011;59778;50.310;18.780;2022-10-26T08:43:55;19.53;;;8.93;;
71902;SDS011;59778;50.310;18.780;2022-10-26T09:15:11;16.83;;;7.60;;
71902;SDS011;59778;50.310;18.780;2022-10-26T09:30:38;13.80;;;5.67;;
71902;SDS011;59778;50.310;18.780;2022-10-26T09:45:59;15.20;;;5.30;;
71902;SDS011;59778;50.310;18.780;2022-10-26T10:01:26;10.13;;;4.57;;
71902;SDS011;59778;50.310;18.780;2022-10-26T10:32:18;8.63;;;3.80;;
71902;SDS011;59778;50.310;18.780;2022-10-26T10:47:41;7.10;;;3.10;;
71902;SDS011;59778;50.310;18.780;2022-10-26T11:18:48;9.47;;;3.10;;
71902;SDS011;59778;50.310;18.780;2022-10-26T11:49:48;9.77;;;2.70;;
71902;SDS011;59778;50.310;18.780;2022-10-26T12:36:45;5.33;;;1.80;;
71902;SDS011;59778;50.310;18.780;2022-10-26T12:52:16;7.37;;;2.07;;
71902;SDS011;59778;50.310;18.780;2022-10-26T13:07:39;7.47;;;2.13;;
71902;SDS011;59778;50.310;18.780;2022-10-26T13:23:01;8.43;;;1.73;;
71902;SDS011;59778;50.310;18.780;2022-10-26T13:38:44;5.50;;;2.30;;
71902;SDS011;59778;50.310;18.780;2022-10-26T14:09:34;4.47;;;1.40;;
71902;SDS011;59778;50.310;18.780;2022-10-26T14:24:58;4.53;;;1.60;;
71902;SDS011;59778;50.310;18.780;2022-10-26T14:40:21;5.83;;;1.80;;
71902;SDS011;59778;50.310;18.780;2022-10-26T14:55:49;5.33;;;1.47;;
71902;SDS011;59778;50.310;18.780;2022-10-26T15:11:11;6.03;;;2.10;;
71902;SDS011;59778;50.310;18.780;2022-10-26T15:26:33;7.53;;;2.07;;
71902;SDS011;59778;50.310;18.780;2022-10-26T15:41:54;5.27;;;1.93;;
71902;SDS011;59778;50.310;18.780;2022-10-26T15:57:15;11.17;;;2.67;;
71902;SDS011;59778;50.310;18.780;2022-10-26T16:12:37;13.13;;;4.53;;
71902;SDS011;59778;50.310;18.780;2022-10-26T16:27:58;46.07;;;21.77;;
71902;SDS011;59778;50.310;18.780;2022-10-26T16:43:20;77.10;;;39.87;;
71902;SDS011;59778;50.310;18.780;2022-10-26T16:58:41;126.93;;;55.33;;
71902;SDS011;59778;50.310;18.780;2022-10-26T17:14:02;116.10;;;50.37;;
71902;SDS011;59778;50.310;18.780;2022-10-26T17:29:23;153.33;;;60.87;;
71902;SDS011;59778;50.310;18.780;2022-10-26T17:44:44;188.40;;;76.27;;
71902;SDS011;59778;50.310;18.780;2022-10-26T18:00:06;124.20;;;54.80;;
71902;SDS011;59778;50.310;18.780;2022-10-26T18:15:28;121.17;;;52.03;;
71902;SDS011;59778;50.310;18.780;2022-10-26T18:30:49;112.90;;;51.13;;
71902;SDS011;59778;50.310;18.780;2022-10-26T18:46:11;250.50;;;91.40;;
71902;SDS011;59778;50.310;18.780;2022-10-26T19:01:35;287.80;;;111.37;;
71902;SDS011;59778;50.310;18.780;2022-10-26T19:16:59;222.00;;;87.80;;
71902;SDS011;59778;50.310;18.780;2022-10-26T19:32:22;278.73;;;108.07;;
71902;SDS011;59778;50.310;18.780;2022-10-26T19:47:46;296.73;;;117.03;;
71902;SDS011;59778;50.310;18.780;2022-10-26T20:03:08;332.97;;;127.07;;
71902;SDS011;59778;50.310;18.780;2022-10-26T20:18:31;238.53;;;95.87;;
71902;SDS011;59778;50.310;18.780;2022-10-26T20:33:52;183.67;;;81.57;;
71902;SDS011;59778;50.310;18.780;2022-10-26T20:49:13;140.07;;;58.43;;
71902;SDS011;59778;50.310;18.780;2022-10-26T21:04:34;127.30;;;58.70;;
71902;SDS011;59778;50.310;18.780;2022-10-26T21:19:55;119.00;;;52.80;;
71902;SDS011;59778;50.310;18.780;2022-10-26T21:35:16;99.50;;;45.73;;
71902;SDS011;59778;50.310;18.780;2022-10-26T21:50:40;114.00;;;45.30;;
71902;SDS011;59778;50.310;18.780;2022-10-26T22:06:02;149.93;;;55.53;;
71902;SDS011;59778;50.310;18.780;2022-10-26T22:21:25;102.60;;;44.13;;
71902;SDS011;59778;50.310;18.780;2022-10-26T22:36:47;87.27;;;37.73;;
71902;SDS011;59778;50.310;18.780;2022-10-26T22:52:08;71.53;;;32.60;;
71902;SDS011;59778;50.310;18.780;2022-10-26T23:07:29;61.70;;;28.13;;
71902;SDS011;59778;50.310;18.780;2022-10-26T23:22:50;60.87;;;27.67;;
71902;SDS011;59778;50.310;18.780;2022-10-26T23:38:12;50.23;;;24.53;;
71902;SDS011;59778;50.310;18.780;2022-10-26T23:53:33;50.60;;;24.63;;
